KCRP/CRP METAR and TAF weather

Enter ICAO airport designator
Station Type Date Time Source
KCRP METAR 2022/12/05 15:06 UTC NOAA

KCRP 051506Z 18011KT 9SM SCT004 BKN009 OVC018 22/22 A3000 RMK AO2 T02170217


Station Type Date Time Source
KCRP Decoded METAR 2022/12/05 15:06 UTC NOAA

CORPUS CHRISTI INTERNATIONAL , TX, United States (KCRP) 27-46N 97-31W 16M
Dec 05, 2022 - 10:06 AM EST / 2022.12.05 1506 UTC
Wind: from the S (180 degrees) at 13 MPH (11 KT):0
Visibility: 9 mile(s):0
Sky conditions: overcast
Temperature: 71.1 F (21.7 C)
Dew Point: 71.1 F (21.7 C)
Relative Humidity: 100%
Pressure (altimeter): 30 in. Hg (1015 hPa)
ob: KCRP 051506Z 18011KT 9SM SCT004 BKN009 OVC018 22/22 A3000 RMK AO2 T02170217
cycle: 15

Station Type Date Time Source
KCRP TAF 2022/12/05 14:45 UTC NOAA

TAF
AMD KCRP 051342Z 0514/0612 16010KT 6SM BR OVC004
TEMPO 0514/0517 18014G20KT OVC008
FM051700 18015G21KT P6SM BKN010
FM052000 16018G25KT P6SM BKN025
TEMPO 0520/0524 SCT025
FM060100 16012KT P6SM OVC008
FM060700 17009KT 4SM BR OVC015

Example: see airport list